Wayland, Ohio
Current Conditions -  °F | °C
As of 6:00 AM on Sunday 23 Nov 2014 (Local Time) from KPOV Reporting Station
Light Rain Light Rain  
Wind Chill: 42°   Ceiling: 6000
Heat Index: 42°   Visibility: 10mi
Dew Point: 35°   Wind: 3mph
Humidity: 75%   Direction: 180°S
Pressure: 30.06"   Gusts: NA
Location:  41.16°N, 81.07°W
Report Text: KPOV 231100Z AUTO 18003KT 10SM -RA SCT034 BKN060 OVC090 06/02 A3006 RMK AO2 T00580017
Loading
Personal Weather Stations






























Interactive Weather Map New forecast layout! Learn more

10-Day Weather Forecast

Advertisements
Track Severe Weather on mobile